CheckWX is a tool to help pilots better visualize weather data.  It is not intended as a substitute for an official pre-flight weather briefing.

14:14:05 UTC

KTPH METAR
Tonopah Airport
Tonopah, Nevada, USA
Current

18 mins ago

KTPH 221356Z AUTO 35007KT 10SM OVC055 08/00 A3016 RMK AO2 RAB18E32 SLP189 P0000 T00830000
Observed
Apr-22 @ 13:56 UTC
Wind
  • 350° at 7 KTS
Visibility
10 SM
Flight Rules
VFR
Cloud Levels
  • Overcast at 5,500' AGL
Temperature
C / 46°F
Dewpoint
C / 32°F
Humidity
57%
Altimeter
30.16" Hg
Pressure
1021.32 hPa
Current Rain
0.01"
Previous

1 hour ago

KTPH 221256Z AUTO 01007KT 10SM OVC060 08/00 A3015 RMK AO2 SLP178 T00830000
Observed
Apr-22 @ 12:56 UTC
Wind
  • 010° at 7 KTS
Visibility
10 SM
Flight Rules
VFR
Cloud Levels
  • Overcast at 6,000' AGL
Temperature
C / 46°F
Dewpoint
C / 32°F
Humidity
57%
Altimeter
30.15" Hg
Pressure
1021.02 hPa
Previous

2 hours ago

KTPH 221156Z AUTO 01011KT 10SM BKN080 OVC090 08/00 A3014 RMK AO2 SLP176 T00830000 10094 20078 55001
Observed
Apr-22 @ 11:56 UTC
Wind
  • 010° at 11 KTS
Visibility
10 SM
Flight Rules
VFR
Cloud Levels
  • Broken at 8,000' AGL
  • Overcast at 9,000' AGL
Temperature
C / 46°F
Dewpoint
C / 32°F
Humidity
57%
Altimeter
30.14" Hg
Pressure
1020.62 hPa